OAL970 LCPH-LGAV
Flight info
| Callsign | OAL970 |
|---|---|
| Flight time | 1h 19m |
| Altitude | 34000 |
| Route | GENOS DCT PEDER DCT LUTIG DCT RDS UL995 USINI DCT AKINA DCT RIPLI UL995 VARIX |
| Aircraft | A320/M-VGDW/C |
Departure
| Time | 2026-04-14 15:43 |
|---|---|
| Airport | Paphos International Airport (LCPH) |
Arrival
| Time | 2026-04-14 17:03 |
|---|---|
| Airport | Athens Eleftherios Venizelos International Airport (LGAV) |
| Time | Latitude | Longitude | Altitude | Speed | Heading |
|---|---|---|---|---|---|
| 2026-04-14 15:13 | 34.71326 | 32.48746 | 44 ft | 0 kts | 155° |
| 2026-04-14 15:32 | 34.71338 | 32.48740 | 44 ft | 3 kts | 155° |
| 2026-04-14 15:33 | 34.71357 | 32.48729 | 41 ft | 3 kts | 155° |
| 2026-04-14 15:33 | 34.71376 | 32.48719 | 42 ft | 3 kts | 155° |
| 2026-04-14 15:33 | 34.71393 | 32.48707 | 41 ft | 3 kts | 138° |
| 2026-04-14 15:33 | 34.71405 | 32.48688 | 44 ft | 3 kts | 102° |
| 2026-04-14 15:34 | 34.71404 | 32.48671 | 42 ft | 0 kts | 66° |
| 2026-04-14 15:36 | 34.71412 | 32.48691 | 44 ft | 5 kts | 66° |
| 2026-04-14 15:36 | 34.71425 | 32.48726 | 42 ft | 4 kts | 64° |
| 2026-04-14 15:37 | 34.71437 | 32.48755 | 44 ft | 4 kts | 63° |
| 2026-04-14 15:37 | 34.71451 | 32.48790 | 44 ft | 5 kts | 63° |
| 2026-04-14 15:37 | 34.71470 | 32.48836 | 44 ft | 7 kts | 66° |
| 2026-04-14 15:37 | 34.71496 | 32.48908 | 43 ft | 11 kts | 65° |
| 2026-04-14 15:38 | 34.71558 | 32.48983 | 44 ft | 15 kts | 22° |
| 2026-04-14 15:38 | 34.71637 | 32.49048 | 45 ft | 15 kts | 79° |
| 2026-04-14 15:38 | 34.71601 | 32.49186 | 44 ft | 19 kts | 111° |
| 2026-04-14 15:38 | 34.71547 | 32.49361 | 41 ft | 25 kts | 110° |
| 2026-04-14 15:39 | 34.71495 | 32.49530 | 40 ft | 21 kts | 110° |
| 2026-04-14 15:39 | 34.71446 | 32.49694 | 39 ft | 16 kts | 110° |
| 2026-04-14 15:39 | 34.71377 | 32.49785 | 40 ft | 15 kts | 139° |
| 2026-04-14 15:39 | 34.71415 | 32.49835 | 40 ft | 15 kts | 299° |
| 2026-04-14 15:40 | 34.71431 | 32.49743 | 39 ft | 0 kts | 290° |
| 2026-04-14 15:42 | 34.71448 | 32.49688 | 39 ft | 25 kts | 290° |
| 2026-04-14 15:42 | 34.71600 | 32.49198 | 44 ft | 95 kts | 290° |
| 2026-04-14 15:43 | 34.71902 | 32.48219 | 46 ft | 149 kts | 292° |
| 2026-04-14 15:43 | 34.72256 | 32.47010 | 603 ft | 148 kts | 285° |
| 2026-04-14 15:43 | 34.72291 | 32.45746 | 1152 ft | 154 kts | 261° |
| 2026-04-14 15:43 | 34.72070 | 32.44463 | 1696 ft | 159 kts | 260° |
| 2026-04-14 15:44 | 34.71789 | 32.43094 | 2050 ft | 177 kts | 258° |
| 2026-04-14 15:44 | 34.71450 | 32.41553 | 2308 ft | 201 kts | 257° |
| 2026-04-14 15:44 | 34.71063 | 32.39816 | 2576 ft | 226 kts | 257° |
| 2026-04-14 15:44 | 34.70627 | 32.37848 | 2963 ft | 250 kts | 256° |
| 2026-04-14 15:45 | 34.70161 | 32.35748 | 3516 ft | 267 kts | 255° |
| 2026-04-14 15:45 | 34.69674 | 32.33539 | 4329 ft | 273 kts | 254° |
| 2026-04-14 15:45 | 34.69180 | 32.31297 | 5234 ft | 275 kts | 254° |
| 2026-04-14 15:45 | 34.68684 | 32.29036 | 6090 ft | 280 kts | 254° |
| 2026-04-14 15:46 | 34.68182 | 32.26734 | 6901 ft | 284 kts | 254° |
| 2026-04-14 15:46 | 34.67673 | 32.24399 | 7731 ft | 286 kts | 254° |
| 2026-04-14 15:46 | 34.67165 | 32.22051 | 8599 ft | 288 kts | 255° |
| 2026-04-14 15:46 | 34.66655 | 32.19687 | 9470 ft | 289 kts | 255° |
| 2026-04-14 15:47 | 34.66194 | 32.17298 | 10245 ft | 295 kts | 262° |
| 2026-04-14 15:47 | 34.66143 | 32.14719 | 10481 ft | 318 kts | 275° |
| 2026-04-14 15:47 | 34.66353 | 32.11941 | 10722 ft | 339 kts | 275° |
| 2026-04-14 15:47 | 34.66568 | 32.09051 | 11322 ft | 346 kts | 275° |
| 2026-04-14 15:48 | 34.66781 | 32.06131 | 12057 ft | 349 kts | 275° |
| 2026-04-14 15:48 | 34.66992 | 32.03182 | 12800 ft | 351 kts | 275° |
| 2026-04-14 15:48 | 34.67197 | 32.00223 | 13543 ft | 354 kts | 275° |
| 2026-04-14 15:48 | 34.67399 | 31.97232 | 14245 ft | 356 kts | 275° |
| 2026-04-14 15:49 | 34.67603 | 31.94231 | 14921 ft | 357 kts | 275° |
| 2026-04-14 15:49 | 34.67951 | 31.91250 | 15593 ft | 358 kts | 283° |
| 2026-04-14 15:49 | 34.68785 | 31.88396 | 16282 ft | 360 kts | 294° |
| 2026-04-14 15:49 | 34.70023 | 31.85748 | 16972 ft | 361 kts | 299° |
| 2026-04-14 15:50 | 34.71300 | 31.83153 | 17653 ft | 362 kts | 299° |
| 2026-04-14 15:50 | 34.72589 | 31.80523 | 18340 ft | 363 kts | 298° |
| 2026-04-14 15:50 | 34.73879 | 31.77878 | 18936 ft | 364 kts | 298° |
| 2026-04-14 15:50 | 34.75176 | 31.75211 | 19473 ft | 367 kts | 298° |
| 2026-04-14 15:51 | 34.76482 | 31.72518 | 19993 ft | 370 kts | 298° |
| 2026-04-14 15:51 | 34.77794 | 31.69809 | 20501 ft | 374 kts | 298° |
| 2026-04-14 15:51 | 34.79122 | 31.67075 | 21014 ft | 377 kts | 298° |
| 2026-04-14 15:51 | 34.80463 | 31.64318 | 21501 ft | 380 kts | 298° |
| 2026-04-14 15:52 | 34.81811 | 31.61540 | 21986 ft | 383 kts | 298° |
| 2026-04-14 15:52 | 34.83168 | 31.58733 | 22460 ft | 386 kts | 298° |
| 2026-04-14 15:52 | 34.84535 | 31.55905 | 22924 ft | 389 kts | 298° |
| 2026-04-14 15:52 | 34.85912 | 31.53058 | 23381 ft | 392 kts | 298° |
| 2026-04-14 15:53 | 34.87298 | 31.50185 | 23806 ft | 395 kts | 298° |
| 2026-04-14 15:53 | 34.88693 | 31.47290 | 24181 ft | 397 kts | 299° |
| 2026-04-14 15:53 | 34.90097 | 31.44382 | 24568 ft | 399 kts | 299° |
| 2026-04-14 15:53 | 34.91507 | 31.41463 | 24955 ft | 400 kts | 299° |
| 2026-04-14 15:54 | 34.94332 | 31.35602 | 25713 ft | 402 kts | 299° |
| 2026-04-14 15:54 | 34.95747 | 31.32664 | 26070 ft | 403 kts | 299° |
| 2026-04-14 15:54 | 34.97169 | 31.29705 | 26443 ft | 405 kts | 299° |
| 2026-04-14 15:55 | 34.98593 | 31.26737 | 26797 ft | 406 kts | 299° |
| 2026-04-14 15:55 | 34.99999 | 31.23806 | 27133 ft | 407 kts | 299° |
| 2026-04-14 15:55 | 35.01436 | 31.20812 | 27474 ft | 409 kts | 299° |
| 2026-04-14 15:55 | 35.02873 | 31.17816 | 27802 ft | 410 kts | 299° |
| 2026-04-14 15:56 | 35.04314 | 31.14812 | 28129 ft | 411 kts | 299° |
| 2026-04-14 15:56 | 35.05761 | 31.11790 | 28433 ft | 413 kts | 299° |
| 2026-04-14 15:56 | 35.07208 | 31.08760 | 28737 ft | 414 kts | 299° |
| 2026-04-14 15:56 | 35.08657 | 31.05721 | 29029 ft | 415 kts | 299° |
| 2026-04-14 15:57 | 35.10109 | 31.02672 | 29313 ft | 416 kts | 299° |
| 2026-04-14 15:57 | 35.11566 | 30.99613 | 29582 ft | 417 kts | 299° |
| 2026-04-14 15:57 | 35.13028 | 30.96543 | 29857 ft | 418 kts | 298° |
| 2026-04-14 15:57 | 35.14485 | 30.93474 | 30190 ft | 417 kts | 298° |
| 2026-04-14 15:58 | 35.15934 | 30.90413 | 30531 ft | 415 kts | 298° |
| 2026-04-14 15:58 | 35.17373 | 30.87371 | 30872 ft | 412 kts | 298° |
| 2026-04-14 15:58 | 35.18769 | 30.84320 | 31219 ft | 409 kts | 297° |
| 2026-04-14 15:58 | 35.20081 | 30.81247 | 31574 ft | 406 kts | 295° |
| 2026-04-14 15:59 | 35.21338 | 30.78161 | 31925 ft | 404 kts | 295° |
| 2026-04-14 15:59 | 35.22560 | 30.75082 | 32282 ft | 401 kts | 294° |
| 2026-04-14 15:59 | 35.23772 | 30.72029 | 32638 ft | 398 kts | 295° |
| 2026-04-14 15:59 | 35.24990 | 30.68993 | 32994 ft | 396 kts | 295° |
| 2026-04-14 16:00 | 35.26209 | 30.65984 | 33356 ft | 393 kts | 295° |
| 2026-04-14 16:00 | 35.27426 | 30.63004 | 33701 ft | 390 kts | 295° |
| 2026-04-14 16:00 | 35.28641 | 30.60043 | 34072 ft | 388 kts | 295° |
| 2026-04-14 16:00 | 35.29847 | 30.57097 | 34200 ft | 387 kts | 295° |
| 2026-04-14 16:01 | 35.31050 | 30.54154 | 34196 ft | 386 kts | 295° |
| 2026-04-14 16:01 | 35.33439 | 30.48278 | 34201 ft | 385 kts | 295° |
| 2026-04-14 16:02 | 35.35817 | 30.42414 | 34196 ft | 385 kts | 295° |
| 2026-04-14 16:02 | 35.38202 | 30.36541 | 34201 ft | 385 kts | 295° |
| 2026-04-14 16:03 | 35.40572 | 30.30696 | 34201 ft | 385 kts | 295° |
| 2026-04-14 16:03 | 35.42973 | 30.24777 | 34204 ft | 385 kts | 295° |
| 2026-04-14 16:04 | 35.45359 | 30.18892 | 34205 ft | 385 kts | 294° |
| 2026-04-14 16:04 | 35.47730 | 30.12995 | 34207 ft | 386 kts | 294° |
| 2026-04-14 16:05 | 35.50104 | 30.07086 | 34205 ft | 386 kts | 294° |
| 2026-04-14 16:05 | 35.52478 | 30.01170 | 34204 ft | 386 kts | 294° |
| 2026-04-14 16:06 | 35.54919 | 29.95293 | 34207 ft | 387 kts | 295° |
| 2026-04-14 16:06 | 35.57479 | 29.89464 | 34202 ft | 387 kts | 296° |
| 2026-04-14 16:07 | 35.60045 | 29.83637 | 34204 ft | 388 kts | 295° |
| 2026-04-14 16:07 | 35.62571 | 29.77830 | 34198 ft | 388 kts | 295° |
| 2026-04-14 16:08 | 35.65097 | 29.71968 | 34196 ft | 388 kts | 295° |
| 2026-04-14 16:08 | 35.67618 | 29.66092 | 34197 ft | 389 kts | 295° |
| 2026-04-14 16:09 | 35.70146 | 29.60209 | 34202 ft | 389 kts | 295° |
| 2026-04-14 16:09 | 35.72677 | 29.54324 | 34197 ft | 389 kts | 295° |
| 2026-04-14 16:10 | 35.75207 | 29.48430 | 34198 ft | 390 kts | 294° |
| 2026-04-14 16:10 | 35.77742 | 29.42517 | 34197 ft | 390 kts | 294° |
| 2026-04-14 16:11 | 35.80275 | 29.36589 | 34202 ft | 391 kts | 294° |
| 2026-04-14 16:11 | 35.82801 | 29.30654 | 34205 ft | 391 kts | 294° |
| 2026-04-14 16:12 | 35.84902 | 29.25718 | 34202 ft | 391 kts | 294° |
| 2026-04-14 16:12 | 35.87426 | 29.19773 | 34201 ft | 391 kts | 294° |
| 2026-04-14 16:13 | 35.89952 | 29.13818 | 34199 ft | 392 kts | 294° |
| 2026-04-14 16:13 | 35.92477 | 29.07858 | 34197 ft | 392 kts | 294° |
| 2026-04-14 16:14 | 35.95005 | 29.01879 | 34199 ft | 393 kts | 294° |
| 2026-04-14 16:14 | 35.97528 | 28.95893 | 34201 ft | 393 kts | 294° |
| 2026-04-14 16:15 | 36.00049 | 28.89902 | 34200 ft | 394 kts | 294° |
| 2026-04-14 16:15 | 36.02571 | 28.83896 | 34200 ft | 394 kts | 294° |
| 2026-04-14 16:16 | 36.05098 | 28.77874 | 34197 ft | 394 kts | 294° |
| 2026-04-14 16:16 | 36.07622 | 28.71854 | 34199 ft | 395 kts | 294° |
| 2026-04-14 16:17 | 36.10145 | 28.65818 | 34198 ft | 395 kts | 294° |
| 2026-04-14 16:17 | 36.12660 | 28.59779 | 34198 ft | 395 kts | 294° |
| 2026-04-14 16:18 | 36.15181 | 28.53725 | 34198 ft | 395 kts | 294° |
| 2026-04-14 16:18 | 36.17683 | 28.47714 | 34197 ft | 395 kts | 294° |
| 2026-04-14 16:19 | 36.20198 | 28.41662 | 34196 ft | 396 kts | 293° |
| 2026-04-14 16:19 | 36.22675 | 28.35688 | 34197 ft | 396 kts | 293° |
| 2026-04-14 16:20 | 36.25187 | 28.29605 | 34190 ft | 396 kts | 293° |
| 2026-04-14 16:20 | 36.27696 | 28.23520 | 34189 ft | 396 kts | 293° |
| 2026-04-14 16:21 | 36.30189 | 28.17480 | 34188 ft | 397 kts | 293° |
| 2026-04-14 16:21 | 36.32699 | 28.11372 | 34193 ft | 397 kts | 293° |
| 2026-04-14 16:22 | 36.35151 | 28.05239 | 34189 ft | 396 kts | 291° |
| 2026-04-14 16:22 | 36.37388 | 27.98996 | 34183 ft | 396 kts | 290° |
| 2026-04-14 16:23 | 36.39572 | 27.92721 | 34189 ft | 396 kts | 290° |
| 2026-04-14 16:23 | 36.41790 | 27.86459 | 34192 ft | 397 kts | 290° |
| 2026-04-14 16:24 | 36.44033 | 27.80195 | 34190 ft | 397 kts | 290° |
| 2026-04-14 16:24 | 36.46267 | 27.73929 | 34189 ft | 397 kts | 290° |
| 2026-04-14 16:25 | 36.48502 | 27.67647 | 34186 ft | 397 kts | 290° |
| 2026-04-14 16:25 | 36.50734 | 27.61367 | 34188 ft | 397 kts | 290° |
| 2026-04-14 16:26 | 36.52949 | 27.55119 | 34192 ft | 397 kts | 290° |
| 2026-04-14 16:26 | 36.55179 | 27.48826 | 34194 ft | 397 kts | 290° |
| 2026-04-14 16:27 | 36.57401 | 27.42537 | 34196 ft | 397 kts | 290° |
| 2026-04-14 16:27 | 36.59622 | 27.36237 | 34198 ft | 397 kts | 290° |
| 2026-04-14 16:28 | 36.61840 | 27.29930 | 34196 ft | 397 kts | 290° |
| 2026-04-14 16:28 | 36.64048 | 27.23624 | 34199 ft | 397 kts | 290° |
| 2026-04-14 16:29 | 36.66245 | 27.17327 | 34196 ft | 397 kts | 290° |
| 2026-04-14 16:29 | 36.68445 | 27.11022 | 34191 ft | 397 kts | 290° |
| 2026-04-14 16:30 | 36.70638 | 27.04717 | 34196 ft | 397 kts | 290° |
| 2026-04-14 16:30 | 36.72830 | 26.98405 | 34192 ft | 397 kts | 290° |
| 2026-04-14 16:31 | 36.75020 | 26.92090 | 34188 ft | 397 kts | 290° |
| 2026-04-14 16:31 | 36.77195 | 26.85794 | 34193 ft | 397 kts | 290° |
| 2026-04-14 16:32 | 36.79373 | 26.79464 | 34178 ft | 397 kts | 290° |
| 2026-04-14 16:32 | 36.81554 | 26.73124 | 34191 ft | 398 kts | 290° |
| 2026-04-14 16:33 | 36.83738 | 26.66780 | 34179 ft | 398 kts | 290° |
| 2026-04-14 16:33 | 36.85909 | 26.60459 | 34182 ft | 398 kts | 290° |
| 2026-04-14 16:34 | 36.88091 | 26.54098 | 34188 ft | 399 kts | 290° |
| 2026-04-14 16:34 | 36.90269 | 26.47734 | 34186 ft | 399 kts | 290° |
| 2026-04-14 16:35 | 36.92441 | 26.41352 | 34202 ft | 399 kts | 290° |
| 2026-04-14 16:35 | 36.94610 | 26.34964 | 34196 ft | 399 kts | 290° |
| 2026-04-14 16:36 | 36.96779 | 26.28567 | 34192 ft | 399 kts | 290° |
| 2026-04-14 16:36 | 36.98940 | 26.22184 | 34192 ft | 399 kts | 290° |
| 2026-04-14 16:37 | 37.01104 | 26.15789 | 34195 ft | 399 kts | 290° |
| 2026-04-14 16:37 | 37.03260 | 26.09393 | 34190 ft | 399 kts | 290° |
| 2026-04-14 16:38 | 37.05413 | 26.02988 | 34196 ft | 399 kts | 290° |
| 2026-04-14 16:38 | 37.07567 | 25.96586 | 34190 ft | 399 kts | 290° |
| 2026-04-14 16:39 | 37.09706 | 25.90214 | 34187 ft | 399 kts | 290° |
| 2026-04-14 16:39 | 37.11856 | 25.83787 | 34183 ft | 400 kts | 290° |
| 2026-04-14 16:40 | 37.13995 | 25.77364 | 34179 ft | 400 kts | 290° |
| 2026-04-14 16:40 | 37.16137 | 25.70926 | 34171 ft | 400 kts | 290° |
| 2026-04-14 16:41 | 37.18278 | 25.64482 | 34164 ft | 401 kts | 290° |
| 2026-04-14 16:41 | 37.20418 | 25.58026 | 34165 ft | 401 kts | 290° |
| 2026-04-14 16:42 | 37.22555 | 25.51563 | 34160 ft | 401 kts | 290° |
| 2026-04-14 16:42 | 37.24693 | 25.45085 | 33784 ft | 403 kts | 290° |
| 2026-04-14 16:42 | 37.25767 | 25.41826 | 33479 ft | 403 kts | 290° |
| 2026-04-14 16:43 | 37.26839 | 25.38565 | 32557 ft | 406 kts | 290° |
| 2026-04-14 16:43 | 37.27904 | 25.35271 | 31635 ft | 408 kts | 289° |
| 2026-04-14 16:43 | 37.28890 | 25.31916 | 30657 ft | 410 kts | 287° |
| 2026-04-14 16:43 | 37.29809 | 25.28508 | 29535 ft | 415 kts | 286° |
| 2026-04-14 16:44 | 37.30688 | 25.25084 | 28936 ft | 407 kts | 286° |
| 2026-04-14 16:44 | 37.31542 | 25.21725 | 28260 ft | 402 kts | 286° |
| 2026-04-14 16:44 | 37.32394 | 25.18407 | 27594 ft | 397 kts | 286° |
| 2026-04-14 16:45 | 37.34125 | 25.11885 | 26261 ft | 391 kts | 289° |
| 2026-04-14 16:45 | 37.35438 | 25.08892 | 25238 ft | 392 kts | 305° |
| 2026-04-14 16:45 | 37.37410 | 25.06518 | 24267 ft | 400 kts | 319° |
| 2026-04-14 16:45 | 37.39674 | 25.04424 | 23204 ft | 407 kts | 320° |
| 2026-04-14 16:46 | 37.41980 | 25.02326 | 22356 ft | 408 kts | 320° |
| 2026-04-14 16:46 | 37.44268 | 25.00264 | 21845 ft | 401 kts | 320° |
| 2026-04-14 16:46 | 37.46518 | 24.98239 | 21336 ft | 394 kts | 320° |
| 2026-04-14 16:46 | 37.48733 | 24.96234 | 20848 ft | 388 kts | 320° |
| 2026-04-14 16:47 | 37.50905 | 24.94255 | 20384 ft | 383 kts | 320° |
| 2026-04-14 16:47 | 37.53044 | 24.92299 | 19919 ft | 378 kts | 320° |
| 2026-04-14 16:47 | 37.55160 | 24.90356 | 19473 ft | 374 kts | 320° |
| 2026-04-14 16:47 | 37.57250 | 24.88436 | 19016 ft | 370 kts | 320° |
| 2026-04-14 16:48 | 37.59319 | 24.86534 | 18549 ft | 367 kts | 320° |
| 2026-04-14 16:48 | 37.61374 | 24.84644 | 18045 ft | 363 kts | 320° |
| 2026-04-14 16:48 | 37.63403 | 24.82780 | 17573 ft | 359 kts | 320° |
| 2026-04-14 16:48 | 37.65415 | 24.80932 | 17115 ft | 357 kts | 320° |
| 2026-04-14 16:49 | 37.67436 | 24.79072 | 16569 ft | 361 kts | 320° |
| 2026-04-14 16:49 | 37.69462 | 24.77209 | 16043 ft | 360 kts | 320° |
| 2026-04-14 16:49 | 37.71480 | 24.75353 | 15525 ft | 358 kts | 320° |
| 2026-04-14 16:49 | 37.73488 | 24.73504 | 15020 ft | 357 kts | 320° |
| 2026-04-14 16:50 | 37.75467 | 24.71678 | 14523 ft | 355 kts | 320° |
| 2026-04-14 16:50 | 37.77456 | 24.69845 | 14031 ft | 354 kts | 320° |
| 2026-04-14 16:50 | 37.79440 | 24.68015 | 13486 ft | 352 kts | 321° |
| 2026-04-14 16:50 | 37.81417 | 24.66189 | 12944 ft | 351 kts | 321° |
| 2026-04-14 16:51 | 37.83319 | 24.64287 | 12391 ft | 347 kts | 313° |
| 2026-04-14 16:51 | 37.84940 | 24.62036 | 11882 ft | 345 kts | 310° |
| 2026-04-14 16:51 | 37.86538 | 24.59773 | 11362 ft | 345 kts | 310° |
| 2026-04-14 16:51 | 37.88129 | 24.57517 | 10858 ft | 344 kts | 310° |
| 2026-04-14 16:52 | 37.89698 | 24.55287 | 10352 ft | 331 kts | 310° |
| 2026-04-14 16:52 | 37.91183 | 24.53137 | 9837 ft | 317 kts | 308° |
| 2026-04-14 16:52 | 37.92487 | 24.50960 | 9291 ft | 305 kts | 306° |
| 2026-04-14 16:52 | 37.93723 | 24.48838 | 8759 ft | 294 kts | 305° |
| 2026-04-14 16:53 | 37.94924 | 24.46783 | 8231 ft | 286 kts | 305° |
| 2026-04-14 16:53 | 37.96099 | 24.44781 | 7727 ft | 283 kts | 305° |
| 2026-04-14 16:53 | 37.97282 | 24.42776 | 7204 ft | 284 kts | 305° |
| 2026-04-14 16:53 | 37.98453 | 24.40798 | 6709 ft | 276 kts | 305° |
| 2026-04-14 16:54 | 37.99593 | 24.38887 | 6187 ft | 269 kts | 305° |
| 2026-04-14 16:54 | 38.00728 | 24.36984 | 5659 ft | 273 kts | 305° |
| 2026-04-14 16:54 | 38.01876 | 24.35048 | 5136 ft | 276 kts | 306° |
| 2026-04-14 16:54 | 38.03017 | 24.33109 | 4606 ft | 271 kts | 305° |
| 2026-04-14 16:55 | 38.04122 | 24.31219 | 4065 ft | 263 kts | 305° |
| 2026-04-14 16:55 | 38.05193 | 24.29380 | 3550 ft | 256 kts | 305° |
| 2026-04-14 16:55 | 38.06238 | 24.27582 | 3083 ft | 248 kts | 306° |
| 2026-04-14 16:55 | 38.07218 | 24.25891 | 2993 ft | 229 kts | 305° |
| 2026-04-14 16:56 | 38.08133 | 24.24315 | 2993 ft | 214 kts | 305° |
| 2026-04-14 16:56 | 38.08710 | 24.23326 | 2991 ft | 207 kts | 305° |
| 2026-04-14 16:56 | 38.09560 | 24.21869 | 2995 ft | 203 kts | 305° |
| 2026-04-14 16:56 | 38.10388 | 24.20424 | 2996 ft | 201 kts | 300° |
| 2026-04-14 16:57 | 38.10848 | 24.18792 | 2997 ft | 197 kts | 268° |
| 2026-04-14 16:57 | 38.10569 | 24.17102 | 3004 ft | 196 kts | 249° |
| 2026-04-14 16:57 | 38.10072 | 24.15494 | 3002 ft | 196 kts | 246° |
| 2026-04-14 16:57 | 38.09543 | 24.13902 | 3005 ft | 196 kts | 245° |
| 2026-04-14 16:58 | 38.09011 | 24.12313 | 3004 ft | 195 kts | 245° |
| 2026-04-14 16:58 | 38.08507 | 24.10795 | 3026 ft | 178 kts | 245° |
| 2026-04-14 16:58 | 38.08006 | 24.09452 | 2999 ft | 157 kts | 232° |
| 2026-04-14 16:58 | 38.07260 | 24.08542 | 3007 ft | 145 kts | 215° |
| 2026-04-14 16:59 | 38.06464 | 24.07782 | 3001 ft | 142 kts | 215° |
| 2026-04-14 16:59 | 38.05677 | 24.07030 | 2931 ft | 141 kts | 215° |
| 2026-04-14 16:59 | 38.04893 | 24.06281 | 2794 ft | 140 kts | 215° |
| 2026-04-14 16:59 | 38.04113 | 24.05537 | 2624 ft | 140 kts | 215° |
| 2026-04-14 17:00 | 38.03335 | 24.04793 | 2445 ft | 140 kts | 215° |
| 2026-04-14 17:00 | 38.02566 | 24.04059 | 2257 ft | 140 kts | 215° |
| 2026-04-14 17:00 | 38.01785 | 24.03313 | 2077 ft | 140 kts | 215° |
| 2026-04-14 17:00 | 38.01005 | 24.02569 | 1888 ft | 141 kts | 215° |
| 2026-04-14 17:01 | 38.00223 | 24.01822 | 1707 ft | 141 kts | 215° |
| 2026-04-14 17:01 | 37.99441 | 24.01077 | 1502 ft | 140 kts | 215° |
| 2026-04-14 17:01 | 37.98662 | 24.00333 | 1296 ft | 140 kts | 215° |
| 2026-04-14 17:01 | 37.97881 | 23.99589 | 1082 ft | 140 kts | 216° |
| 2026-04-14 17:02 | 37.97100 | 23.98844 | 875 ft | 141 kts | 216° |
| 2026-04-14 17:02 | 37.96318 | 23.98099 | 679 ft | 140 kts | 216° |
| 2026-04-14 17:02 | 37.95537 | 23.97356 | 483 ft | 140 kts | 216° |
| 2026-04-14 17:02 | 37.94758 | 23.96615 | 317 ft | 139 kts | 216° |
| 2026-04-14 17:03 | 37.94080 | 23.95975 | 284 ft | 86 kts | 218° |
| 2026-04-14 17:03 | 37.93764 | 23.95669 | 279 ft | 46 kts | 217° |
| 2026-04-14 17:03 | 37.93568 | 23.95473 | 283 ft | 29 kts | 225° |
| 2026-04-14 17:03 | 37.93491 | 23.95324 | 286 ft | 15 kts | 245° |
| 2026-04-14 17:04 | 37.93468 | 23.95260 | 293 ft | 0 kts | 247° |
| 2026-04-14 17:05 | 37.93468 | 23.95257 | 293 ft | 3 kts | 248° |
| 2026-04-14 17:05 | 37.93457 | 23.95207 | 294 ft | 4 kts | 268° |
| 2026-04-14 17:05 | 37.93473 | 23.95167 | 298 ft | 11 kts | 315° |
| 2026-04-14 17:05 | 37.93558 | 23.95190 | 301 ft | 14 kts | 33° |
| 2026-04-14 17:06 | 37.93654 | 23.95279 | 298 ft | 19 kts | 40° |
| 2026-04-14 17:06 | 37.93763 | 23.95387 | 298 ft | 9 kts | 37° |
| 2026-04-14 17:06 | 37.93787 | 23.95410 | 300 ft | 0 kts | 38° |
| 2026-04-14 17:06 | 37.93788 | 23.95411 | 300 ft | 3 kts | 38° |
| 2026-04-14 17:07 | 37.93812 | 23.95434 | 296 ft | 6 kts | 37° |
| 2026-04-14 17:07 | 37.93887 | 23.95505 | 298 ft | 21 kts | 37° |
| 2026-04-14 17:07 | 37.94006 | 23.95617 | 298 ft | 16 kts | 35° |
| 2026-04-14 17:07 | 37.94082 | 23.95630 | 299 ft | 8 kts | 329° |
| 2026-04-14 17:08 | 37.94112 | 23.95589 | 300 ft | 7 kts | 307° |
| 2026-04-14 17:08 | 37.94157 | 23.95516 | 301 ft | 12 kts | 309° |
| 2026-04-14 17:08 | 37.94234 | 23.95386 | 303 ft | 22 kts | 306° |
| 2026-04-14 17:08 | 37.94282 | 23.95300 | 301 ft | 5 kts | 303° |
| 2026-04-14 17:09 | 37.94270 | 23.95279 | 301 ft | 6 kts | 217° |
| 2026-04-14 17:09 | 37.94241 | 23.95253 | 302 ft | 5 kts | 216° |
| 2026-04-14 17:09 | 37.94218 | 23.95231 | 303 ft | 4 kts | 217° |
| 2026-04-14 17:09 | 37.94204 | 23.95218 | 301 ft | 0 kts | 217° |